Time;durP1;ratioP1;P1;durP2;ratioP2;P2;SDS_P1;SDS_P2;PMS_P1;PMS_P2;Temp;Humidity;BMP_temperature;BMP_pressure;BME280_temperature;BME280_humidity;BME280_pressure;Samples;Min_cycle;Max_cycle;Signal;HPM_P1;HPM_P2
2023/11/04 00:01:20;;;;;;;;;7.00;4.33;;;;;23.88;53.70;99681.37;146613;565;46020;-75
2023/11/04 00:04:13;;;;;;;;;6.00;4.00;;;;;23.84;52.99;99647.06;146615;590;46016;-76
2023/11/04 00:07:05;;;;;;;;;3.67;2.00;;;;;23.83;53.45;99654.16;146616;605;46010;-76
2023/11/04 00:10:00;;;;;;;;;4.33;3.67;;;;;23.80;52.94;99634.78;146609;565;46921;-76
2023/11/04 00:12:56;;;;;;;;;6.00;2.00;;;;;23.79;53.25;99627.75;146616;690;46021;-76
2023/11/04 00:16:06;;;;;;;;;6.33;4.00;;;;;22.63;53.05;99403.41;146610;640;47012;-73
2023/11/04 00:19:04;;;;;;;;;2.00;2.00;;;;;23.74;53.29;99630.50;146613;575;46021;-77
2023/11/04 00:22:00;;;;;;;;;2.00;2.00;;;;;23.71;53.33;99627.91;146609;683;47014;-74
2023/11/04 00:25:15;;;;;;;;;;;;;;;;;;;;;
2023/11/04 00:28:10;;;;;;;;;4.00;3.33;;;;;23.67;53.19;99639.41;146615;565;46016;-74
2023/11/04 00:31:10;;;;;;;;;5.67;3.00;;;;;23.68;53.80;99643.81;146614;580;47010;-74
2023/11/04 00:34:02;;;;;;;;;4.00;3.00;;;;;23.66;53.81;99641.19;146612;572;46017;-73
2023/11/04 00:37:06;;;;;;;;;4.00;4.00;;;;;23.63;53.88;99627.16;146618;591;46020;-82
2023/11/04 00:40:16;;;;;;;;;;;;;;;;;;;;;
2023/11/04 00:43:11;;;;;;;;;5.33;4.00;;;;;23.59;53.86;99649.28;146617;586;46010;-82
2023/11/04 00:46:05;;;;;;;;;4.00;2.67;;;;;23.59;54.29;99647.50;146610;617;48015;-82
2023/11/04 00:49:03;;;;;;;;;7.00;3.33;;;;;23.58;54.19;99645.75;146613;641;47020;-78
2023/11/04 00:52:01;;;;;;;;;7.00;5.33;;;;;23.60;54.30;99651.03;146611;663;46012;-79
2023/11/04 00:54:54;;;;;;;;;6.00;4.00;;;;;23.63;54.06;99641.25;146614;636;47012;-79
2023/11/04 00:57:49;;;;;;;;;6.00;4.00;;;;;23.60;53.51;99649.25;146608;629;47016;-78
2023/11/04 01:00:42;;;;;;;;;5.33;3.33;;;;;23.64;53.94;99660.66;146616;583;46010;-79
2023/11/04 01:03:35;;;;;;;;;7.00;5.00;;;;;23.65;53.98;99657.97;146613;602;46017;-80
2023/11/04 01:06:29;;;;;;;;;6.00;4.00;;;;;23.60;53.76;99659.84;146614;604;47010;-79
2023/11/04 01:09:23;;;;;;;;;5.33;4.33;;;;;23.59;53.18;99657.22;146615;582;46017;-80
2023/11/04 01:12:26;;;;;;;;;5.33;4.00;;;;;23.60;53.09;99659.84;146616;573;46021;-78
2023/11/04 01:15:21;;;;;;;;;3.67;3.67;;;;;23.62;52.50;99663.34;146613;564;46016;-78
2023/11/04 01:18:15;;;;;;;;;6.00;4.00;;;;;23.70;52.34;99663.22;146608;592;46021;-74
2023/11/04 01:21:24;;;;;;;;;3.67;2.67;;;;;23.82;52.70;99672.69;146609;622;46015;-78
2023/11/04 01:24:28;;;;;;;;;4.67;2.67;;;;;23.90;52.39;99660.19;146609;640;46021;-78
2023/11/04 01:27:20;;;;;;;;;5.00;3.00;;;;;24.01;52.03;99644.94;146612;569;46016;-80
2023/11/04 01:30:23;;;;;;;;;5.67;4.33;;;;;24.06;51.48;99645.72;146616;650;46020;-73
2023/11/04 01:33:26;;;;;;;;;3.00;2.00;;;;;24.08;51.98;99635.97;146614;681;47012;-78
2023/11/04 01:36:28;;;;;;;;;;;;;;;;;;;;;
2023/11/04 01:39:27;;;;;;;;;4.33;4.00;;;;;24.15;51.62;99605.78;146613;564;46013;-76
2023/11/04 01:42:21;;;;;;;;;4.00;4.00;;;;;24.21;51.11;99599.50;146613;607;46020;-76
2023/11/04 01:45:26;;;;;;;;;5.00;3.33;;;;;24.25;51.01;99587.91;146609;582;47016;-78
2023/11/04 01:48:21;;;;;;;;;3.00;1.00;;;;;24.26;50.63;99584.34;146614;616;46012;-77
2023/11/04 01:51:21;;;;;;;;;6.67;4.67;;;;;24.25;51.41;99581.75;146614;676;46012;-74
2023/11/04 01:54:40;;;;;;;;;8.00;6.00;;;;;24.26;51.29;99571.09;146614;599;46022;-77
2023/11/04 01:57:38;;;;;;;;;8.33;4.67;;;;;24.28;51.70;99594.94;146611;606;47016;-82
2023/11/04 02:00:37;;;;;;;;;5.33;5.33;;;;;24.31;51.21;99587.78;146616;563;47010;-83
2023/11/04 02:03:41;;;;;;;;;6.67;5.00;;;;;24.33;51.27;99603.63;146615;625;46012;-86
2023/11/04 02:06:33;;;;;;;;;8.00;5.67;;;;;24.32;50.94;99601.88;146615;642;46020;-87
2023/11/04 02:09:36;;;;;;;;;6.33;4.00;;;;;24.24;50.87;99574.69;146615;612;46013;-83
2023/11/04 02:12:32;;;;;;;;;5.33;4.00;;;;;24.14;50.31;99539.59;146611;671;46933;-82
2023/11/04 02:15:27;;;;;;;;;6.00;3.67;;;;;24.12;50.84;99555.53;146612;569;46921;-79
2023/11/04 02:18:20;;;;;;;;;3.67;3.00;;;;;24.08;51.54;99587.41;146620;564;46020;-80
2023/11/04 02:21:17;;;;;;;;;3.33;3.00;;;;;24.02;51.32;99547.81;146610;695;46014;-80
2023/11/04 02:24:10;;;;;;;;;8.67;4.67;;;;;23.96;50.66;99554.16;146612;694;46021;-80
2023/11/04 02:27:06;;;;;;;;;6.00;3.67;;;;;23.89;50.72;99552.53;146613;587;47012;-79
2023/11/04 02:30:05;;;;;;;;;3.00;3.00;;;;;23.82;50.78;99570.31;146613;656;47012;-81
2023/11/04 02:33:06;;;;;;;;;6.33;3.67;;;;;23.82;49.89;99556.22;146613;592;46017;-80
2023/11/04 02:35:59;;;;;;;;;4.00;4.00;;;;;23.89;49.76;99563.12;146615;661;46029;-77
2023/11/04 02:38:59;;;;;;;;;3.67;3.67;;;;;23.90;49.66;99541.91;146613;564;46015;-79
2023/11/04 02:42:06;;;;;;;;;8.00;4.00;;;;;23.98;49.47;99568.22;146614;588;46010;-77
2023/11/04 02:45:11;;;;;;;;;8.33;3.67;;;;;24.08;48.62;99553.88;146614;670;46921;-79
2023/11/04 02:48:10;;;;;;;;;6.33;4.00;;;;;24.16;48.70;99569.59;146609;628;47021;-77
2023/11/04 02:51:04;;;;;;;;;6.00;4.33;;;;;24.22;48.74;99566.78;146613;582;46016;-81
2023/11/04 02:53:57;;;;;;;;;10.67;4.33;;;;;24.29;48.32;99559.56;146612;636;47011;-84
2023/11/04 02:56:55;;;;;;;;;5.00;3.00;;;;;24.33;48.46;99548.88;146611;580;47014;-83
2023/11/04 02:59:51;;;;;;;;;6.67;2.00;;;;;24.35;48.42;99547.06;146617;669;46010;-84
2023/11/04 03:02:44;;;;;;;;;6.67;4.00;;;;;24.41;48.46;99560.19;146613;659;46016;-76
2023/11/04 03:05:47;;;;;;;;;7.67;6.33;;;;;24.42;48.45;99530.16;146617;599;46020;-75
2023/11/04 03:08:45;;;;;;;;;5.67;3.00;;;;;24.44;48.25;99508.91;146610;608;46921;-76
2023/11/04 03:11:39;;;;;;;;;10.67;3.00;;;;;24.49;47.91;99524.72;146608;596;49020;-84
2023/11/04 03:14:41;;;;;;;;;;;;;;;;;;;;;
2023/11/04 03:17:38;;;;;;;;;8.33;4.00;;;;;24.49;47.70;99509.66;146612;576;46010;-80
2023/11/04 03:20:42;;;;;;;;;6.33;5.00;;;;;24.51;47.61;99505.19;146612;607;46016;-82
2023/11/04 03:23:34;;;;;;;;;9.67;4.33;;;;;24.58;47.04;99514.75;146611;565;46020;-84
2023/11/04 03:26:36;;;;;;;;;7.00;4.33;;;;;24.64;47.43;99504.00;146614;674;46012;-78
2023/11/04 03:29:28;;;;;;;;;3.67;3.33;;;;;24.71;47.46;99490.56;146615;573;47010;-80
2023/11/04 03:32:30;;;;;;;;;6.00;5.00;;;;;24.75;47.90;99508.13;146614;592;46014;-84
2023/11/04 03:35:24;;;;;;;;;6.33;4.00;;;;;24.77;47.98;99483.31;146613;667;46020;-81
2023/11/04 03:38:16;;;;;;;;;7.33;5.00;;;;;24.81;48.33;99490.28;146612;648;47015;-80
2023/11/04 03:41:08;;;;;;;;;7.33;4.67;;;;;24.83;48.18;99475.22;146614;566;48020;-79
2023/11/04 03:44:01;;;;;;;;;8.33;4.33;;;;;24.83;48.23;99464.59;146615;574;46016;-80
2023/11/04 03:47:05;;;;;;;;;12.33;6.33;;;;;24.83;48.22;99461.09;146610;583;47020;-78
2023/11/04 03:50:01;;;;;;;;;6.00;3.00;;;;;24.80;47.63;99454.09;146615;688;46016;-78
2023/11/04 03:52:53;;;;;;;;;8.67;3.33;;;;;24.83;47.58;99438.09;146616;586;46021;-80
2023/11/04 03:55:50;;;;;;;;;7.33;5.00;;;;;24.85;46.96;99446.00;146614;600;46016;-77
2023/11/04 03:58:56;;;;;;;;;5.33;3.67;;;;;24.87;47.38;99441.53;146617;589;46010;-80
2023/11/04 04:01:57;;;;;;;;;6.67;3.67;;;;;24.84;47.05;99429.22;146614;570;46014;-81
2023/11/04 04:04:52;;;;;;;;;9.67;5.00;;;;;24.85;47.48;99423.00;146614;620;46020;-82
2023/11/04 04:07:50;;;;;;;;;8.00;4.00;;;;;24.84;46.03;99415.97;146610;577;46017;-79
2023/11/04 04:10:52;;;;;;;;;5.67;2.67;;;;;24.87;46.60;99410.56;146613;595;46027;-79
2023/11/04 04:14:03;;;;;;;;;9.00;1.00;;;;;23.76;46.32;99231.66;146611;666;46921;-79
2023/11/04 04:17:02;;;;;;;;;6.33;5.00;;;;;24.92;46.20;99417.53;146612;602;47010;-78
2023/11/04 04:19:56;;;;;;;;;5.67;4.67;;;;;24.95;46.46;99415.66;146634;571;46012;-73
2023/11/04 04:22:58;;;;;;;;;5.00;5.00;;;;;24.97;46.72;99405.00;146634;564;46012;-74
2023/11/04 04:26:00;;;;;;;;;8.00;5.33;;;;;24.99;44.75;99408.50;146634;596;46030;-77
2023/11/04 04:28:56;;;;;;;;;7.33;5.00;;;;;25.03;44.36;99402.19;146635;583;45917;-78
2023/11/04 04:31:56;;;;;;;;;6.33;5.00;;;;;25.11;45.33;99413.44;146633;596;45017;-80
2023/11/04 04:34:49;;;;;;;;;9.33;6.00;;;;;25.12;45.06;99410.78;146631;607;46010;-79
2023/11/04 04:37:51;;;;;;;;;7.00;7.00;;;;;25.09;45.07;99408.19;146635;624;46014;-79
2023/11/04 04:40:49;;;;;;;;;9.00;5.00;;;;;25.12;45.22;99402.81;146634;655;45020;-76
2023/11/04 04:43:44;;;;;;;;;6.33;3.00;;;;;25.12;44.79;99399.25;146630;555;46010;-73
2023/11/04 04:46:49;;;;;;;;;7.00;3.33;;;;;25.14;44.48;99397.47;146633;600;46010;-79
2023/11/04 04:49:41;;;;;;;;;8.67;4.00;;;;;25.18;43.98;99392.94;146632;569;46016;-74
2023/11/04 04:52:40;;;;;;;;;5.00;4.00;;;;;25.23;43.67;99375.94;146633;571;46011;-77
2023/11/04 04:55:37;;;;;;;;;11.00;4.33;;;;;25.28;43.41;99371.38;146632;678;46014;-74
2023/11/04 04:58:30;;;;;;;;;6.00;5.00;;;;;25.30;42.92;99371.38;146636;570;46010;-75
2023/11/04 05:01:29;;;;;;;;;9.33;5.00;;;;;25.34;42.91;99371.19;146632;741;46922;-77
2023/11/04 05:04:25;;;;;;;;;8.33;6.00;;;;;25.35;43.49;99362.31;146636;644;46010;-77
2023/11/04 05:07:20;;;;;;;;;8.00;5.00;;;;;25.41;44.00;99379.84;146637;618;45016;-73
2023/11/04 05:10:26;;;;;;;;;6.67;3.00;;;;;25.42;44.94;99359.47;146634;573;46020;-81
2023/11/04 05:13:22;;;;;;;;;3.00;2.67;;;;;25.38;44.11;99341.91;146633;569;46012;-84
2023/11/04 05:16:15;;;;;;;;;5.33;3.33;;;;;25.37;44.02;99326.94;146635;721;45020;-80
2023/11/04 05:19:10;;;;;;;;;5.00;3.00;;;;;25.38;43.98;99342.78;146616;623;46016;-79
2023/11/04 05:22:03;;;;;;;;;9.33;3.67;;;;;25.37;44.13;99318.97;146616;648;46010;-79
2023/11/04 05:25:15;;;;;;;;;3.00;2.00;;;;;25.35;43.14;99289.81;146613;650;47012;-76
2023/11/04 05:28:15;;;;;;;;;3.33;3.00;;;;;25.38;43.78;99284.41;146617;622;46020;-78
2023/11/04 05:31:12;;;;;;;;;8.67;3.67;;;;;25.37;43.08;99282.69;146614;632;46016;-77
2023/11/04 05:34:07;;;;;;;;;4.67;2.00;;;;;25.37;42.15;99295.09;146615;655;46020;-81
2023/11/04 05:37:11;;;;;;;;;5.00;3.33;;;;;25.43;42.86;99321.44;146612;595;46016;-78
2023/11/04 05:40:11;;;;;;;;;8.00;3.33;;;;;25.47;41.90;99345.16;146610;579;46020;-81
2023/11/04 05:43:04;;;;;;;;;7.33;3.67;;;;;25.53;42.15;99357.38;146612;589;46012;-77
2023/11/04 05:46:07;;;;;;;;;8.33;3.33;;;;;25.55;42.28;99356.41;146612;612;46020;-71
2023/11/04 05:49:01;;;;;;;;;5.33;3.00;;;;;25.60;41.29;99350.06;146614;593;47016;-71
2023/11/04 05:51:56;;;;;;;;;5.33;4.67;;;;;25.65;41.56;99342.84;146617;565;46021;-75
2023/11/04 05:54:52;;;;;;;;;5.33;3.00;;;;;25.67;41.27;99323.28;146613;571;46016;-74
2023/11/04 05:57:51;;;;;;;;;5.33;3.67;;;;;25.68;41.15;99303.78;146617;599;46020;-73
2023/11/04 06:00:47;;;;;;;;;6.00;2.00;;;;;25.71;42.10;99314.31;146610;643;46016;-75
2023/11/04 06:03:41;;;;;;;;;3.33;0.00;;;;;25.68;41.22;99292.31;146612;599;46917;-73
2023/11/04 06:06:34;;;;;;;;;4.67;2.00;;;;;25.73;41.18;99290.34;146613;588;46017;-72
2023/11/04 06:09:38;;;;;;;;;5.00;3.00;;;;;25.78;41.93;99267.16;146614;569;46010;-74
2023/11/04 06:12:39;;;;;;;;;9.33;3.00;;;;;25.80;42.11;99260.91;146608;697;46017;-74
2023/11/04 06:15:35;;;;;;;;;7.33;4.00;;;;;25.82;41.30;99265.31;146615;586;46010;-72
2023/11/04 06:18:28;;;;;;;;;6.67;5.67;;;;;25.86;40.81;99253.66;146611;585;46921;-72
2023/11/04 06:21:22;;;;;;;;;6.33;4.33;;;;;25.90;41.56;99239.37;146613;638;47021;-73
2023/11/04 06:24:40;;;;;;;;;5.67;3.33;;;;;24.79;42.24;99051.19;146613;701;46921;-72
2023/11/04 06:27:36;;;;;;;;;4.00;1.33;;;;;25.96;41.50;99231.19;146605;599;48915;-73
2023/11/04 06:30:37;;;;;;;;;9.67;3.00;;;;;26.03;41.37;99240.66;146612;631;46017;-81
2023/11/04 06:33:29;;;;;;;;;4.33;3.00;;;;;26.16;41.48;99254.37;146617;590;46020;-74
2023/11/04 06:36:25;;;;;;;;;7.00;5.00;;;;;26.32;42.05;99270.63;146611;641;46017;-77
2023/11/04 06:39:37;;;;;;;;;5.00;4.00;;;;;26.50;41.10;99285.94;146616;597;46020;-76
2023/11/04 06:42:29;;;;;;;;;7.00;4.00;;;;;26.63;40.65;99294.31;146615;638;46017;-77
2023/11/04 06:45:34;;;;;;;;;5.33;3.67;;;;;26.68;41.53;99298.53;146616;581;47010;-78
2023/11/04 06:48:38;;;;;;;;;5.00;4.00;;;;;26.69;41.91;99312.69;146614;577;46014;-78
2023/11/04 06:51:36;;;;;;;;;3.00;2.33;;;;;26.66;42.14;99305.69;146613;575;48021;-76
2023/11/04 06:54:34;;;;;;;;;6.00;4.67;;;;;26.65;41.71;99300.44;146612;634;46032;-78
2023/11/04 06:57:39;;;;;;;;;7.67;3.00;;;;;26.59;41.94;99277.59;146615;616;46010;-76
2023/11/04 07:00:40;;;;;;;;;6.00;5.00;;;;;26.62;42.58;99268.66;146613;593;46016;-76
2023/11/04 07:03:36;;;;;;;;;8.00;4.00;;;;;26.60;41.58;99292.63;146614;579;47010;-76
2023/11/04 07:06:32;;;;;;;;;3.33;3.00;;;;;26.58;41.56;99297.16;146614;603;47017;-76
2023/11/04 07:09:39;;;;;;;;;5.67;4.00;;;;;26.56;42.24;99309.63;146613;563;46020;-76
2023/11/04 07:12:34;;;;;;;;;8.67;2.67;;;;;26.52;41.90;99333.72;146606;582;46016;-76
2023/11/04 07:15:53;;;;;;;;;5.33;2.33;;;;;26.50;42.14;99336.44;146615;722;46010;-78
2023/11/04 07:18:57;;;;;;;;;5.33;3.67;;;;;26.44;42.61;99312.69;146610;579;46028;-78
2023/11/04 07:22:14;;;;;;;;;4.33;2.33;;;;;25.71;43.16;99184.22;146612;564;47021;-75
2023/11/04 07:25:12;;;;;;;;;5.33;4.00;;;;;26.35;42.30;99294.41;146613;591;46014;-77
2023/11/04 07:28:10;;;;;;;;;5.33;4.00;;;;;26.32;42.92;99298.06;146617;675;46010;-76
2023/11/04 07:31:22;;;;;;;;;5.33;3.33;;;;;26.29;43.62;99289.31;146614;695;46016;-76
2023/11/04 07:34:32;;;;;;;;;3.67;2.67;;;;;26.22;42.14;99286.88;146614;633;47010;-76
2023/11/04 07:37:26;;;;;;;;;5.00;3.00;;;;;26.22;43.27;99286.88;146608;645;46016;-73
2023/11/04 07:40:23;;;;;;;;;3.67;3.67;;;;;26.18;43.40;99313.63;146613;664;47020;-77
2023/11/04 07:43:21;;;;;;;;;4.67;3.67;;;;;26.18;43.69;99362.31;146612;584;47013;-76
2023/11/04 07:46:40;;;;;;;;;8.00;4.67;;;;;24.88;46.78;99276.22;146607;584;47010;-78
2023/11/04 07:49:35;;;;;;;;;7.33;5.00;;;;;25.73;50.82;99471.78;146611;626;46017;-77
2023/11/04 07:52:27;;;;;;;;;7.67;3.33;;;;;24.94;57.56;99504.06;146608;595;47010;-72
2023/11/04 07:55:27;;;;;;;;;8.00;5.33;;;;;24.31;57.77;99523.34;146611;601;47012;-71
2023/11/04 07:58:21;;;;;;;;;6.67;5.00;;;;;23.76;60.68;99590.75;146616;584;46011;-71
2023/11/04 08:01:25;;;;;;;;;10.00;6.00;;;;;23.33;59.65;99608.31;146608;653;46016;-74
2023/11/04 08:04:18;;;;;;;;;5.67;4.00;;;;;23.03;61.48;99573.59;146614;576;46020;-74
2023/11/04 08:07:19;;;;;;;;;6.00;5.00;;;;;22.81;59.66;99565.16;146611;589;47014;-75
2023/11/04 08:10:14;;;;;;;;;7.67;4.33;;;;;22.62;61.30;99523.19;146616;609;46010;-75
2023/11/04 08:13:18;;;;;;;;;7.33;3.67;;;;;22.40;59.42;99517.38;146601;567;47016;-76
2023/11/04 08:16:16;;;;;;;;;4.00;3.33;;;;;22.12;61.96;99523.97;146611;708;47010;-75
2023/11/04 08:19:21;;;;;;;;;;;;;;;;;;;;;
2023/11/04 08:22:27;;;;;;;;;5.00;4.67;;;;;20.43;62.70;99310.81;146613;632;46010;-76
2023/11/04 08:25:25;;;;;;;;;7.67;4.33;;;;;21.55;65.55;99546.72;146612;629;47012;-77
2023/11/04 08:28:23;;;;;;;;;6.00;5.33;;;;;21.49;66.61;99568.75;146612;715;47021;-77
2023/11/04 08:31:26;;;;;;;;;6.33;4.00;;;;;21.44;67.45;99518.72;146611;570;47012;-76
2023/11/04 08:34:19;;;;;;;;;14.33;10.00;;;;;21.32;68.73;99475.78;146609;592;46011;-77
2023/11/04 08:37:13;;;;;;;;;12.33;10.67;;;;;21.17;69.71;99482.97;146604;564;48012;-77
2023/11/04 08:40:18;;;;;;;;;14.33;10.67;;;;;21.06;69.77;99482.25;146611;694;46010;-77
2023/11/04 08:43:14;;;;;;;;;11.33;7.67;;;;;21.04;71.65;99456.78;146609;622;47012;-78
2023/11/04 08:46:08;;;;;;;;;4.33;4.33;;;;;21.05;72.00;99455.88;146611;584;47010;-76
2023/11/04 08:49:10;;;;;;;;;3.33;3.00;;;;;21.03;69.07;99462.94;146613;580;47012;-77
2023/11/04 08:52:04;;;;;;;;;4.33;3.00;;;;;21.08;70.11;99488.34;146618;584;46024;-77
2023/11/04 08:55:01;;;;;;;;;5.33;4.00;;;;;21.20;71.45;99488.19;146615;563;46014;-76
2023/11/04 08:57:57;;;;;;;;;4.00;2.67;;;;;21.34;72.38;99505.63;146615;654;47020;-77
2023/11/04 09:01:06;;;;;;;;;;;;;;;;;;;;;
2023/11/04 09:04:04;;;;;;;;;6.67;5.67;;;;;21.53;71.16;99501.91;146609;578;48010;-75
2023/11/04 09:06:57;;;;;;;;;6.67;5.00;;;;;21.58;75.30;99501.84;146613;576;46016;-76
2023/11/04 09:09:50;;;;;;;;;8.33;5.00;;;;;21.55;76.27;99539.69;146613;650;46020;-76
2023/11/04 09:12:45;;;;;;;;;6.00;5.33;;;;;21.54;73.57;99558.16;146611;576;47016;-75
2023/11/04 09:15:49;;;;;;;;;9.00;7.67;;;;;21.49;70.91;99517.78;146614;609;46020;-75
2023/11/04 09:18:51;;;;;;;;;5.00;5.00;;;;;21.49;72.46;99552.06;146612;602;46014;-75
2023/11/04 09:21:46;;;;;;;;;9.00;8.00;;;;;21.38;75.42;99547.81;146616;644;46010;-78
2023/11/04 09:24:48;;;;;;;;;9.67;5.67;;;;;21.27;73.94;99541.72;146614;563;46012;-75
2023/11/04 09:27:41;;;;;;;;;8.00;6.00;;;;;21.20;78.25;99522.47;146615;571;46010;-81
2023/11/04 09:30:43;;;;;;;;;6.33;5.00;;;;;21.14;76.39;99488.28;146612;577;46016;-76
2023/11/04 09:33:54;;;;;;;;;;;;;;;;;;;;;
2023/11/04 09:36:47;;;;;;;;;3.67;3.67;;;;;21.09;77.36;99476.03;146612;630;47018;-76
2023/11/04 09:39:43;;;;;;;;;7.00;4.67;;;;;21.26;74.61;99471.44;146614;565;46025;-75
2023/11/04 09:42:45;;;;;;;;;4.00;2.00;;;;;21.58;74.30;99481.59;146614;572;46017;-77
2023/11/04 09:45:44;;;;;;;;;3.00;1.00;;;;;21.85;70.45;99495.31;146614;617;46020;-77
2023/11/04 09:48:40;;;;;;;;;5.00;3.67;;;;;22.08;70.51;99485.28;146615;633;46016;-77
2023/11/04 09:51:42;;;;;;;;;2.67;1.67;;;;;22.40;70.72;99489.25;146607;588;46920;-77
2023/11/04 09:54:49;;;;;;;;;2.00;2.00;;;;;22.77;69.59;99507.06;146615;623;46016;-77
2023/11/04 09:57:47;;;;;;;;;1.33;1.33;;;;;23.16;68.61;99512.56;146619;580;46010;-76
2023/11/04 10:00:44;;;;;;;;;6.33;4.67;;;;;23.48;66.75;99533.06;146614;609;46012;-77
2023/11/04 10:03:47;;;;;;;;;12.67;9.00;;;;;23.68;70.06;99535.31;146610;654;47011;-74
2023/11/04 10:06:45;;;;;;;;;10.00;6.33;;;;;23.77;66.67;99535.16;146607;593;46038;-76
2023/11/04 10:09:42;;;;;;;;;8.00;4.00;;;;;23.80;61.57;99513.91;146611;591;48020;-76
2023/11/04 10:12:49;;;;;;;;;4.67;2.67;;;;;23.91;61.67;99496.00;146611;614;47012;-77
2023/11/04 10:15:46;;;;;;;;;5.67;5.00;;;;;24.06;61.98;99538.94;146612;588;46032;-76
2023/11/04 10:18:42;;;;;;;;;5.33;3.33;;;;;23.97;59.20;99559.41;146611;714;47014;-80
2023/11/04 10:21:36;;;;;;;;;4.00;3.33;;;;;23.70;57.44;99581.16;146613;566;46010;-78
2023/11/04 10:24:47;;;;;;;;;2.67;2.67;;;;;23.38;55.27;99582.66;146613;569;46012;-80
2023/11/04 10:27:45;;;;;;;;;1.33;0.00;;;;;23.01;53.51;99569.22;146615;569;46012;-80
2023/11/04 10:30:51;;;;;;;;;;;;;;;;;;;;;
2023/11/04 10:33:55;;;;;;;;;1.67;1.00;;;;;22.60;55.49;99576.06;146614;582;46010;-75
2023/11/04 10:36:55;;;;;;;;;0.00;0.00;;;;;22.44;55.61;99586.00;146614;694;46012;-80
2023/11/04 10:40:00;;;;;;;;;1.00;0.33;;;;;22.25;53.87;99593.34;146616;642;46021;-78
2023/11/04 10:43:14;;;;;;;;;0.00;0.00;;;;;22.03;54.99;99595.38;146613;637;47016;-75
2023/11/04 10:46:21;;;;;;;;;0.00;0.00;;;;;21.81;55.58;99621.16;146611;614;47012;-81
2023/11/04 10:49:40;;;;;;;;;0.00;0.00;;;;;21.58;54.96;99604.72;146609;606;46017;-79
2023/11/04 10:53:08;;;;;;;;;0.00;0.00;;;;;20.22;56.41;99373.34;146616;586;46010;-77
2023/11/04 10:56:12;;;;;;;;;0.00;0.00;;;;;21.25;55.72;99576.94;146614;716;46014;-83
2023/11/04 10:59:47;;;;;;;;;0.00;0.00;;;;;19.85;56.30;99378.03;146616;572;46012;-80
2023/11/04 11:02:43;;;;;;;;;0.00;0.00;;;;;20.89;57.17;99602.75;146616;644;46014;-83
2023/11/04 11:05:43;;;;;;;;;0.00;0.00;;;;;20.80;57.32;99605.44;146616;579;46010;-81
2023/11/04 11:08:46;;;;;;;;;0.00;0.00;;;;;20.65;59.40;99561.66;146609;748;46016;-78
2023/11/04 11:12:11;;;;;;;;;0.00;0.00;;;;;20.45;59.94;99569.69;146617;596;46010;-78
2023/11/04 11:15:10;;;;;;;;;0.00;0.00;;;;;20.29;62.79;99564.53;146614;569;46016;-76
2023/11/04 11:18:13;;;;;;;;;0.00;0.00;;;;;20.20;62.75;99561.09;146613;598;46027;-78
2023/11/04 11:21:20;;;;;;;;;0.00;0.00;;;;;20.18;63.00;99539.16;146611;634;47012;-77
2023/11/04 11:24:22;;;;;;;;;10.33;8.00;;;;;20.20;62.87;99546.16;146612;577;46020;-77
2023/11/04 11:27:18;;;;;;;;;11.00;10.00;;;;;20.31;65.27;99546.09;146604;583;46016;-76
2023/11/04 11:30:19;;;;;;;;;13.75;12.25;;;;;20.67;65.74;99541.47;146608;693;46020;-78
2023/11/04 11:33:18;;;;;;;;;0.00;0.00;;;;;21.14;61.14;99532.22;146611;619;47014;-79
2023/11/04 11:36:21;;;;;;;;;0.00;0.00;;;;;21.70;57.34;99535.97;146615;704;47010;-79
2023/11/04 11:39:22;;;;;;;;;0.00;0.00;;;;;22.25;57.47;99516.75;146615;750;46012;-76
2023/11/04 11:42:36;;;;;;;;;0.00;0.00;;;;;22.72;54.39;99507.16;146613;704;47010;-77
2023/11/04 11:45:34;;;;;;;;;0.00;0.00;;;;;23.07;52.00;99525.97;146613;571;46016;-78
2023/11/04 11:48:39;;;;;;;;;0.00;0.00;;;;;23.32;50.31;99545.72;146611;590;46021;-79
2023/11/04 11:51:40;;;;;;;;;0.00;0.00;;;;;23.66;49.27;99535.34;146611;701;46012;-78
2023/11/04 11:54:49;;;;;;;;;0.00;0.00;;;;;22.87;49.79;99333.38;146615;589;46021;-82
2023/11/04 11:57:46;;;;;;;;;0.00;0.00;;;;;24.04;49.83;99509.81;146612;563;46016;-79
2023/11/04 12:00:46;;;;;;;;;0.00;0.00;;;;;24.13;49.37;99514.03;146610;620;46917;-81
2023/11/04 12:03:43;;;;;;;;;0.00;0.00;;;;;24.32;48.60;99523.28;146613;724;46918;-80
2023/11/04 12:06:53;;;;;;;;;0.00;0.00;;;;;24.52;46.81;99509.59;146616;652;46020;-82
2023/11/04 12:09:54;;;;;;;;;0.33;0.00;;;;;24.66;49.72;99499.50;146616;702;47013;-79
2023/11/04 12:12:48;;;;;;;;;0.00;0.00;;;;;24.73;45.86;99526.72;146613;570;46020;-80
2023/11/04 12:16:00;;;;;;;;;2.67;1.67;;;;;24.74;49.70;99509.06;146613;572;46016;-78
2023/11/04 12:18:53;;;;;;;;;1.00;0.00;;;;;24.85;48.21;99530.84;146613;575;46010;-78
2023/11/04 12:21:48;;;;;;;;;2.00;0.50;;;;;25.01;47.92;99537.47;146613;595;46921;-78
2023/11/04 12:24:43;;;;;;;;;0.00;0.00;;;;;25.22;47.13;99559.94;146613;567;46021;-79
2023/11/04 12:27:51;;;;;;;;;0.00;0.00;;;;;25.44;48.23;99567.28;146613;663;46012;-81
2023/11/04 12:30:48;;;;;;;;;0.00;0.00;;;;;25.60;48.69;99573.03;146617;634;47010;-79
2023/11/04 12:33:51;;;;;;;;;0.33;0.00;;;;;25.73;47.25;99583.28;146612;566;47012;-80
2023/11/04 12:36:48;;;;;;;;;0.00;0.00;;;;;25.82;46.61;99594.56;146613;678;46010;-79
2023/11/04 12:39:44;;;;;;;;;0.00;0.00;;;;;25.73;44.30;99599.22;146610;693;47016;-78
2023/11/04 12:43:01;;;;;;;;;2.67;0.67;;;;;25.60;44.86;99595.13;146614;612;46020;-74
2023/11/04 12:46:03;;;;;;;;;2.67;0.00;;;;;25.52;42.23;99607.78;146614;609;47012;-77
2023/11/04 12:49:03;;;;;;;;;2.00;1.00;;;;;25.50;41.94;99594.53;146615;762;46021;-79
2023/11/04 12:52:06;;;;;;;;;2.00;2.00;;;;;25.53;45.67;99598.88;146613;575;47014;-81
2023/11/04 12:55:08;;;;;;;;;2.00;1.00;;;;;25.64;43.95;99607.44;146616;611;46021;-81
2023/11/04 12:58:02;;;;;;;;;1.33;0.00;;;;;25.75;43.74;99613.28;146610;696;47012;-78
2023/11/04 13:01:03;;;;;;;;;1.67;1.67;;;;;25.88;43.28;99621.81;146612;597;46023;-80
2023/11/04 13:03:59;;;;;;;;;3.00;1.33;;;;;25.92;44.03;99623.47;146608;609;46016;-80
2023/11/04 13:07:02;;;;;;;;;1.33;0.00;;;;;25.94;43.07;99636.69;146616;589;46020;-73
2023/11/04 13:09:57;;;;;;;;;4.33;1.67;;;;;25.89;39.83;99651.88;146612;694;46016;-77
2023/11/04 13:12:54;;;;;;;;;3.00;1.00;;;;;25.75;41.94;99653.13;146614;617;47020;-81
2023/11/04 13:15:55;;;;;;;;;4.67;2.00;;;;;25.65;41.60;99664.06;146613;582;46017;-81
2023/11/04 13:18:47;;;;;;;;;3.33;1.00;;;;;25.32;41.29;99656.06;146613;591;46029;-78
2023/11/04 13:21:38;;;;;;;;;0.33;0.00;;;;;24.93;39.62;99656.16;146612;593;47012;-79
2023/11/04 13:24:41;;;;;;;;;1.33;1.00;;;;;24.88;43.13;99655.38;146615;621;46021;-82
2023/11/04 13:27:33;;;;;;;;;1.33;0.00;;;;;25.00;40.80;99643.59;146614;605;46016;-75
2023/11/04 13:30:25;;;;;;;;;3.00;1.00;;;;;25.15;41.32;99642.37;146614;589;46011;-76
2023/11/04 13:33:20;;;;;;;;;2.00;2.00;;;;;25.27;39.11;99642.94;146613;576;46012;-77
2023/11/04 13:36:16;;;;;;;;;0.67;0.33;;;;;25.42;39.51;99656.69;146616;577;47012;-81
2023/11/04 13:39:24;;;;;;;;;4.00;2.00;;;;;25.52;40.26;99652.91;146614;579;46031;-79
2023/11/04 13:42:31;;;;;;;;;0.67;0.00;;;;;25.56;41.11;99657.19;146615;569;46020;-79
2023/11/04 13:45:31;;;;;;;;;3.00;2.00;;;;;25.58;40.04;99648.28;146613;573;46012;-78
2023/11/04 13:48:23;;;;;;;;;2.00;2.00;;;;;25.63;40.62;99645.50;146615;580;46010;-77
2023/11/04 13:51:28;;;;;;;;;2.67;1.33;;;;;25.58;41.66;99652.72;146614;595;47014;-80
2023/11/04 13:54:31;;;;;;;;;0.00;0.00;;;;;25.24;40.59;99656.28;146617;573;46021;-80
2023/11/04 13:57:26;;;;;;;;;1.33;0.33;;;;;25.00;42.53;99670.97;146614;604;47016;-78
2023/11/04 14:00:26;;;;;;;;;0.33;0.33;;;;;24.87;42.26;99678.38;146615;581;46010;-79
2023/11/04 14:03:30;;;;;;;;;4.33;0.00;;;;;24.75;41.46;99678.66;146613;620;46016;-80
2023/11/04 14:06:28;;;;;;;;;0.33;0.33;;;;;24.49;41.47;99689.00;146614;587;46020;-81
2023/11/04 14:09:23;;;;;;;;;1.00;0.00;;;;;24.20;42.70;99685.16;146610;590;47012;-81
2023/11/04 14:12:37;;;;;;;;;1.00;0.00;;;;;23.94;44.34;99698.94;146615;563;46020;-81
2023/11/04 14:15:32;;;;;;;;;0.67;0.00;;;;;23.68;41.40;99715.28;146615;564;46017;-81
2023/11/04 14:18:24;;;;;;;;;1.00;0.00;;;;;23.49;43.85;99720.91;146614;586;47030;-79